Time;durP1;ratioP1;P1;durP2;ratioP2;P2;SDS_P1;SDS_P2;PMS_P1;PMS_P2;Temp;Humidity;BMP_temperature;BMP_pressure;BME280_temperature;BME280_humidity;BME280_pressure;Samples;Min_cycle;Max_cycle;Signal;HPM_P1;HPM_P2
2022/11/11 00:01:52;;;;;;;10.52;4.78;;;;;;;13.19;57.03;102741.38;5054065;28;20047;-66
2022/11/11 00:04:37;;;;;;;8.55;4.60;;;;;;;13.16;56.93;102741.50;5056045;28;20072;-66
2022/11/11 00:07:22;;;;;;;9.57;4.03;;;;;;;13.16;56.89;102736.09;5073804;28;20060;-67
2022/11/11 00:10:08;;;;;;;8.47;4.57;;;;;;;13.19;57.14;102737.78;5074098;28;20212;-67
2022/11/11 00:13:00;;;;;;;6.75;4.30;;;;;;;13.20;57.02;102739.53;5073870;28;20090;-67
2022/11/11 00:15:46;;;;;;;9.50;4.82;;;;;;;13.19;57.14;102729.69;5062692;28;20054;-68
2022/11/11 00:25:06;;;;;;;10.68;4.70;;;;;;;13.12;57.31;102739.91;5055749;28;20223;-67
2022/11/11 00:27:51;;;;;;;9.30;5.78;;;;;;;13.13;57.10;102740.78;5054306;28;20048;-66
2022/11/11 00:30:36;;;;;;;9.90;5.28;;;;;;;13.12;56.99;102753.41;5053938;28;20130;-66
2022/11/11 00:33:21;;;;;;;18.85;5.55;;;;;;;13.11;57.41;102758.88;5057622;28;20047;-66
2022/11/11 00:36:06;;;;;;;10.27;5.10;;;;;;;13.10;57.24;102755.28;5073512;28;20063;-66
2022/11/11 00:38:54;;;;;;;;;;;;;;;13.07;57.47;102768.06;5073689;28;20555;-66
2022/11/11 00:41:39;;;;;;;11.18;6.18;;;;;;;13.09;57.29;102777.84;5073169;28;20301;-66
2022/11/11 00:44:27;;;;;;;13.60;5.93;;;;;;;13.08;57.31;102770.69;5072697;28;20062;-66
2022/11/11 00:53:26;;;;;;;9.35;6.82;;;;;;;13.14;58.06;102764.97;5068264;28;20079;-68
2022/11/11 00:56:12;;;;;;;12.40;7.68;;;;;;;13.20;57.92;102770.09;5051410;28;20138;-68
2022/11/11 00:58:57;;;;;;;12.38;7.18;;;;;;;13.26;58.13;102785.09;5052834;28;20052;-67
2022/11/11 01:01:43;;;;;;;11.88;8.05;;;;;;;13.29;58.38;102783.09;5053010;28;20047;-68
2022/11/11 01:04:29;;;;;;;15.48;8.27;;;;;;;13.34;58.18;102785.56;5065624;28;20177;-67
2022/11/11 01:07:14;;;;;;;16.17;7.95;;;;;;;13.39;58.40;102788.94;5072532;28;20052;-67
2022/11/11 01:09:59;;;;;;;13.82;9.13;;;;;;;13.42;58.22;102791.47;5073023;28;20058;-68
2022/11/11 01:12:46;;;;;;;12.32;7.93;;;;;;;13.45;58.16;102790.44;5072929;28;20102;-67
2022/11/11 01:15:34;;;;;;;11.32;8.00;;;;;;;13.49;58.56;102797.41;5053074;28;20060;-67
2022/11/11 01:18:22;;;;;;;12.45;8.38;;;;;;;13.50;58.41;102794.66;5052480;28;20047;-67
2022/11/11 01:21:14;;;;;;;12.80;8.07;;;;;;;13.54;58.50;102790.84;5052652;28;20427;-66
2022/11/11 01:24:00;;;;;;;12.60;8.52;;;;;;;13.58;58.77;102792.41;5053376;28;20163;-68
2022/11/11 01:27:02;;;;;;;14.25;9.02;;;;;;;13.61;58.56;102788.69;5010454;28;20084;-67
2022/11/11 01:29:47;;;;;;;15.80;9.38;;;;;;;13.60;58.73;102785.09;5010453;28;20061;-67
2022/11/11 01:32:33;;;;;;;15.32;9.85;;;;;;;13.61;58.91;102785.97;5011008;28;20088;-67
2022/11/11 01:35:18;;;;;;;15.45;9.95;;;;;;;13.61;58.57;102784.16;5028611;28;20075;-68
2022/11/11 01:38:03;;;;;;;17.13;9.90;;;;;;;13.64;58.83;102778.59;5029863;28;20220;-67
2022/11/11 01:40:49;;;;;;;13.52;9.60;;;;;;;13.67;59.05;102781.13;5029818;28;20518;-68
2022/11/11 01:43:34;;;;;;;12.90;9.50;;;;;;;13.73;58.80;102768.25;5029588;28;20487;-67
2022/11/11 01:46:28;;;;;;;13.77;10.13;;;;;;;13.76;58.82;102771.66;5029751;28;20127;-68
2022/11/11 01:49:33;;;;;;;16.48;10.00;;;;;;;13.78;59.22;102767.03;5029793;28;20291;-67
2022/11/11 01:52:24;;;;;;;14.52;9.95;;;;;;;13.82;58.89;102757.81;5025966;28;20555;-68
2022/11/11 01:55:19;;;;;;;15.82;9.82;;;;;;;13.87;58.89;102771.06;5029989;28;20065;-67
2022/11/11 01:58:09;;;;;;;14.70;11.38;;;;;;;13.88;59.05;102768.28;5029313;28;20060;-67
2022/11/11 02:00:57;;;;;;;16.67;10.63;;;;;;;13.87;59.00;102766.53;5030494;28;20529;-66
2022/11/11 02:05:40;;;;;;;14.73;10.63;;;;;;;13.87;58.90;102758.44;5032217;28;20056;-67
2022/11/11 02:06:54;;;;;;;14.90;10.93;;;;;;;13.87;59.14;102746.75;5032081;28;20056;-67
2022/11/11 02:09:44;;;;;;;14.77;10.43;;;;;;;13.87;59.07;102754.88;5032475;28;20100;-68
2022/11/11 02:15:37;;;;;;;13.52;10.20;;;;;;;13.90;59.13;102739.38;5051829;28;20048;-68
2022/11/11 02:18:22;;;;;;;17.40;11.00;;;;;;;13.90;58.86;102744.78;5051606;28;20182;-67
2022/11/11 02:21:11;;;;;;;16.95;10.80;;;;;;;13.90;59.33;102727.69;5051357;28;20407;-67
2022/11/11 02:24:03;;;;;;;18.60;11.23;;;;;;;13.94;59.16;102735.53;5031869;28;20476;-67
2022/11/11 02:26:52;;;;;;;14.52;11.18;;;;;;;13.93;59.12;102736.50;5031755;28;20053;-68
2022/11/11 02:29:46;;;;;;;17.05;10.85;;;;;;;13.96;59.48;102739.03;5031697;28;20060;-68
2022/11/11 02:32:31;;;;;;;16.02;10.68;;;;;;;13.95;59.31;102740.00;5040844;28;20055;-68
2022/11/11 02:35:28;;;;;;;18.10;11.00;;;;;;;13.94;59.58;102740.06;5051494;28;20060;-67
2022/11/11 02:38:13;;;;;;;19.20;11.02;;;;;;;13.93;59.42;102743.72;5051333;28;20758;-67
2022/11/11 02:44:02;;;;;;;18.73;11.18;;;;;;;13.94;59.21;102749.06;5051512;28;20521;-67
2022/11/11 02:46:48;;;;;;;16.90;11.70;;;;;;;13.94;59.45;102753.56;5051945;28;20087;-67
2022/11/11 02:49:33;;;;;;;19.20;12.38;;;;;;;13.93;59.17;102749.13;5051417;28;20056;-67
2022/11/11 02:52:18;;;;;;;21.00;12.47;;;;;;;13.90;59.28;102744.78;5040218;28;20052;-67
2022/11/11 02:55:07;;;;;;;19.00;12.45;;;;;;;13.92;59.27;102733.88;5031843;28;20334;-67
2022/11/11 02:57:53;;;;;;;15.00;11.63;;;;;;;13.93;59.55;102735.63;5031275;28;20052;-67
2022/11/11 03:00:38;;;;;;;18.05;11.30;;;;;;;13.98;59.46;102731.72;5049650;28;20068;-67
2022/11/11 03:03:23;;;;;;;20.63;11.83;;;;;;;13.99;59.33;102738.00;5050905;28;20577;-67
2022/11/11 03:06:11;;;;;;;21.45;12.40;;;;;;;13.99;59.50;102736.16;5051304;28;20291;-68
2022/11/11 03:08:56;;;;;;;16.60;11.05;;;;;;;13.99;59.61;102741.56;5051158;28;20044;-67
2022/11/11 03:11:42;;;;;;;14.00;10.85;;;;;;;13.98;59.62;102747.06;5069535;28;20039;-67
2022/11/11 03:14:28;;;;;;;16.50;11.50;;;;;;;13.97;59.17;102745.31;5071427;28;20457;-67
2022/11/11 03:23:22;;;;;;;16.95;11.15;;;;;;;13.91;59.63;102745.66;5054468;28;20099;-67
2022/11/11 03:26:08;;;;;;;16.02;11.02;;;;;;;13.93;59.65;102746.44;5054602;28;20048;-67
2022/11/11 03:28:52;;;;;;;21.23;12.32;;;;;;;13.92;59.62;102742.84;5054746;28;20047;-67
2022/11/11 03:31:38;;;;;;;17.05;11.82;;;;;;;13.94;59.67;102751.75;5054552;28;20115;-66
2022/11/11 03:34:27;;;;;;;18.05;12.77;;;;;;;13.96;59.73;102749.84;5055048;28;20064;-67
2022/11/11 03:40:16;;;;;;;18.52;12.55;;;;;;;14.03;59.69;102744.97;5054723;28;20056;-66
2022/11/11 03:43:01;;;;;;;19.47;12.97;;;;;;;14.02;59.56;102742.34;5054473;28;20411;-67
2022/11/11 03:45:52;;;;;;;21.13;14.10;;;;;;;14.01;59.57;102741.47;5054660;28;20055;-67
2022/11/11 03:48:37;;;;;;;18.15;13.80;;;;;;;13.97;59.46;102745.31;5054980;28;20056;-67
2022/11/11 03:51:22;;;;;;;21.33;14.37;;;;;;;13.92;59.69;102737.44;5072112;28;20052;-67
2022/11/11 03:54:07;;;;;;;22.13;15.18;;;;;;;13.93;59.29;102732.94;5074490;28;20516;-66
2022/11/11 04:00:09;;;;;;;22.10;15.18;;;;;;;13.94;59.43;102751.75;4982346;28;20539;-66
2022/11/11 04:12:25;;;;;;;26.08;17.13;;;;;;;13.84;59.36;102758.63;4991645;28;20049;-67
2022/11/11 04:18:14;;;;;;;24.52;17.20;;;;;;;13.87;59.32;102758.44;4983772;28;20050;-67
2022/11/11 04:27:10;;;;;;;23.70;16.95;;;;;;;13.81;59.57;102771.41;4972053;28;20133;-66
2022/11/11 04:29:55;;;;;;;28.67;17.15;;;;;;;13.83;59.46;102773.06;4972321;28;20053;-66
2022/11/11 04:32:41;;;;;;;31.17;18.67;;;;;;;13.81;59.51;102761.47;4979342;28;20174;-66
2022/11/11 04:35:28;;;;;;;27.67;18.25;;;;;;;13.78;59.53;102776.97;5033742;28;20741;-68
2022/11/11 04:41:17;;;;;;;28.45;17.85;;;;;;;13.76;59.84;102763.56;5053202;28;20064;-67
2022/11/11 04:47:21;;;;;;;25.35;16.52;;;;;;;13.74;59.89;102765.47;5039652;28;20107;-66
2022/11/11 04:50:06;;;;;;;24.60;16.23;;;;;;;13.76;59.55;102762.69;5033871;28;20611;-67
2022/11/11 04:52:52;;;;;;;22.23;15.90;;;;;;;13.76;59.58;102762.69;5033341;28;20291;-67
2022/11/11 04:58:46;;;;;;;20.90;13.80;;;;;;;13.70;59.48;102763.88;5044274;28;20078;-67
2022/11/11 05:04:36;;;;;;;20.20;14.40;;;;;;;13.71;59.94;102771.03;5073106;28;20364;-67
2022/11/11 05:10:24;;;;;;;20.00;13.90;;;;;;;13.73;59.69;102762.84;5072973;28;20110;-67
2022/11/11 05:22:33;;;;;;;16.55;11.52;;;;;;;13.64;59.40;102772.31;5052197;28;20610;-68
2022/11/11 05:25:24;;;;;;;16.95;12.32;;;;;;;13.65;59.34;102777.63;5053353;28;20048;-67
2022/11/11 05:28:09;;;;;;;19.80;12.68;;;;;;;13.60;59.46;102771.59;5071388;28;20102;-67
2022/11/11 05:30:54;;;;;;;16.33;10.90;;;;;;;13.54;59.41;102771.94;5072836;28;20060;-67
2022/11/11 05:33:39;;;;;;;18.77;12.02;;;;;;;13.47;59.37;102775.03;5072539;28;20173;-67
2022/11/11 05:36:24;;;;;;;18.45;12.52;;;;;;;13.40;59.18;102776.31;5071845;28;20421;-67
2022/11/11 05:39:09;;;;;;;14.68;11.20;;;;;;;13.33;58.71;102776.59;5072078;28;20141;-67
2022/11/11 05:41:54;;;;;;;18.20;11.00;;;;;;;13.21;58.92;102776.38;5071825;28;20063;-67
2022/11/11 05:44:41;;;;;;;17.00;11.13;;;;;;;13.11;58.77;102775.06;5071894;28;20475;-67
2022/11/11 05:47:26;;;;;;;17.02;10.85;;;;;;;13.07;58.69;102782.44;5072594;28;20094;-67
2022/11/11 05:50:11;;;;;;;20.08;10.50;;;;;;;13.03;59.08;102784.41;5072251;28;20055;-67
2022/11/11 05:52:56;;;;;;;16.87;10.40;;;;;;;12.97;58.98;102784.72;5072165;28;20456;-68
2022/11/11 05:55:43;;;;;;;15.48;10.45;;;;;;;12.88;58.60;102784.31;5062177;28;20303;-68
2022/11/11 05:58:28;;;;;;;19.05;10.02;;;;;;;12.79;58.79;102788.34;5051980;28;20431;-67
2022/11/11 06:01:13;;;;;;;17.05;10.30;;;;;;;12.70;58.68;102786.09;5051735;28;20132;-66
2022/11/11 06:03:58;;;;;;;16.08;11.43;;;;;;;12.66;58.78;102785.38;5051969;28;20522;-67
2022/11/11 06:07:01;;;;;;;14.65;9.85;;;;;;;12.68;59.06;102785.31;4990036;28;20058;-66
2022/11/11 06:09:46;;;;;;;13.32;9.48;;;;;;;12.69;58.97;102789.75;4990282;28;20432;-67
2022/11/11 06:13:00;;;;;;;15.48;9.65;;;;;;;12.68;58.81;102788.88;4991115;28;20053;-67
2022/11/11 06:15:38;;;;;;;18.20;10.15;;;;;;;12.65;58.84;102791.72;4991108;28;20058;-68
2022/11/11 06:18:24;;;;;;;15.40;9.77;;;;;;;12.64;58.62;102799.88;4990830;28;20512;-67
2022/11/11 06:21:16;;;;;;;12.95;9.43;;;;;;;12.58;58.96;102795.63;4989663;28;20492;-67
2022/11/11 06:24:01;;;;;;;13.32;9.32;;;;;;;12.52;58.68;102812.09;4990144;28;20460;-66
2022/11/11 06:26:47;;;;;;;12.63;8.85;;;;;;;12.43;58.69;102815.22;4989614;28;20164;-66
2022/11/11 06:29:32;;;;;;;14.23;8.70;;;;;;;12.33;59.10;102806.72;4989886;28;20065;-67
2022/11/11 06:32:17;;;;;;;15.20;9.20;;;;;;;12.27;58.93;102804.31;4989748;28;20061;-67
2022/11/11 06:35:05;;;;;;;14.52;8.88;;;;;;;12.20;58.58;102804.66;5005665;28;20752;-67
2022/11/11 06:37:50;;;;;;;14.48;8.57;;;;;;;12.16;58.80;102811.13;5009317;28;20053;-67
2022/11/11 06:40:36;;;;;;;14.68;8.25;;;;;;;12.11;58.78;102813.16;5026996;28;20071;-67
2022/11/11 06:43:21;;;;;;;14.60;8.00;;;;;;;12.04;58.96;102812.59;5070599;28;20053;-67
2022/11/11 06:46:16;;;;;;;16.13;8.70;;;;;;;12.01;58.92;102824.38;5069463;28;20831;-67
2022/11/11 06:49:03;;;;;;;13.85;8.60;;;;;;;11.98;59.19;102829.00;5071291;28;20063;-66
2022/11/11 06:51:48;;;;;;;13.05;7.93;;;;;;;11.93;59.06;102826.53;5070070;28;20291;-67
2022/11/11 06:54:37;;;;;;;11.73;7.15;;;;;;;11.88;59.12;102822.28;5068833;28;20544;-66
2022/11/11 06:57:22;;;;;;;11.13;7.20;;;;;;;11.84;59.07;102817.97;5071349;28;20164;-68
2022/11/11 07:00:07;;;;;;;10.63;7.07;;;;;;;11.85;59.45;102836.75;5070896;28;20059;-67
2022/11/11 07:02:56;;;;;;;11.13;7.38;;;;;;;11.87;59.50;102832.16;5071582;28;20134;-72
2022/11/11 07:05:42;;;;;;;12.27;6.80;;;;;;;11.89;59.66;102821.31;5070923;28;20067;-67
2022/11/11 07:08:27;;;;;;;11.77;6.78;;;;;;;11.87;59.15;102826.78;5071258;28;20055;-67
2022/11/11 07:11:13;;;;;;;9.93;6.53;;;;;;;11.83;59.40;102827.84;5070866;28;20060;-67
2022/11/11 07:14:03;;;;;;;11.55;6.85;;;;;;;11.83;59.29;102827.84;5056315;28;20060;-67
2022/11/11 07:16:49;;;;;;;10.97;7.00;;;;;;;11.81;59.54;102824.34;5071140;28;20061;-67
2022/11/11 07:19:34;;;;;;;10.23;6.28;;;;;;;11.82;59.39;102825.22;5070782;28;20521;-67
2022/11/11 07:22:19;;;;;;;8.82;5.95;;;;;;;11.82;59.45;102831.50;5070891;28;20071;-67
2022/11/11 07:25:06;;;;;;;10.47;6.20;;;;;;;11.83;59.49;102833.25;5069385;28;20636;-66
2022/11/11 07:27:51;;;;;;;9.57;6.22;;;;;;;11.80;59.48;102838.75;5070830;28;20048;-66
2022/11/11 07:30:42;;;;;;;10.77;6.05;;;;;;;11.80;59.79;102851.34;5070671;28;20059;-67
2022/11/11 07:33:28;;;;;;;8.82;5.38;;;;;;;11.80;59.63;102849.53;5052432;28;20091;-65
2022/11/11 07:36:12;;;;;;;11.02;5.63;;;;;;;11.82;59.88;102849.47;5050609;28;20103;-66
2022/11/11 07:38:58;;;;;;;8.23;5.63;;;;;;;11.82;59.81;102853.03;5050664;28;20517;-67
2022/11/11 07:41:43;;;;;;;10.50;5.47;;;;;;;11.85;59.54;102852.91;5050461;28;20306;-66
2022/11/11 07:44:31;;;;;;;10.52;5.70;;;;;;;11.87;59.79;102853.69;5066342;28;20048;-67
2022/11/11 07:47:16;;;;;;;8.18;5.18;;;;;;;11.88;59.63;102865.34;5070714;28;20052;-66
2022/11/11 07:50:04;;;;;;;8.25;5.72;;;;;;;11.90;59.84;102867.06;5070085;28;20592;-66
2022/11/11 07:52:52;;;;;;;6.50;4.88;;;;;;;11.93;59.74;102869.63;5050652;28;20102;-66
2022/11/11 07:55:38;;;;;;;9.50;5.47;;;;;;;11.96;59.85;102874.88;5051260;28;20572;-66
2022/11/11 07:58:23;;;;;;;8.07;5.90;;;;;;;11.99;59.68;102876.53;5037080;28;20142;-64
2022/11/11 08:01:09;;;;;;;;;;;;;;;11.98;59.76;102883.75;5033730;28;20406;-65
2022/11/11 08:03:54;;;;;;;8.27;5.05;;;;;;;11.98;59.40;102894.53;5053605;28;19927;-65
2022/11/11 08:06:39;;;;;;;10.10;5.90;;;;;;;11.97;59.69;102900.84;5054022;28;20144;-65
2022/11/11 08:09:24;;;;;;;9.13;5.60;;;;;;;11.98;59.72;102905.28;5053899;28;20275;-65
2022/11/11 08:15:14;;;;;;;7.38;5.40;;;;;;;12.07;59.97;102910.25;5053684;28;20087;-65
2022/11/11 08:17:59;;;;;;;8.80;5.43;;;;;;;12.08;59.39;102911.13;5053423;28;20095;-65
2022/11/11 08:20:44;;;;;;;7.43;4.65;;;;;;;12.08;59.99;102903.94;5052958;28;20435;-65
2022/11/11 08:23:36;;;;;;;7.13;4.93;;;;;;;12.12;59.79;102907.38;5053172;28;20060;-66
2022/11/11 08:27:01;;;;;;;8.32;5.18;;;;;;;12.15;59.99;102909.06;5011977;28;20046;-65
2022/11/11 08:29:46;;;;;;;9.70;5.32;;;;;;;12.19;60.10;102914.22;5011521;28;20133;-66
2022/11/11 08:32:31;;;;;;;7.33;4.30;;;;;;;12.24;60.13;102917.59;4972366;28;20222;-65
2022/11/11 08:35:16;;;;;;;6.32;4.57;;;;;;;12.31;60.13;102918.19;4972458;28;20205;-65
2022/11/11 08:38:02;;;;;;;6.32;4.57;;;;;;;12.38;59.99;102925.03;4972411;28;20057;-65
2022/11/11 08:40:47;;;;;;;9.43;5.18;;;;;;;12.43;60.21;102923.00;4971764;28;20117;-65
2022/11/11 08:43:33;;;;;;;7.27;4.50;;;;;;;12.50;59.97;102926.31;4972192;28;20061;-65
2022/11/11 08:46:23;;;;;;;5.40;4.32;;;;;;;12.59;60.17;102934.84;4972630;28;20301;-65
2022/11/11 08:49:08;;;;;;;7.75;4.85;;;;;;;12.66;60.43;102930.94;4972998;28;20057;-65
2022/11/11 08:51:53;;;;;;;5.35;4.10;;;;;;;12.76;59.99;102933.22;4971828;28;20062;-70
2022/11/11 08:54:40;;;;;;;6.00;4.15;;;;;;;12.84;60.14;102934.59;5008683;28;20107;-67
2022/11/11 08:57:25;;;;;;;6.95;4.10;;;;;;;12.92;60.35;102935.09;5023576;28;20056;-67
2022/11/11 09:00:11;;;;;;;5.97;4.03;;;;;;;13.02;59.87;102933.72;5045970;28;20060;-68
2022/11/11 09:03:01;;;;;;;5.80;4.05;;;;;;;13.10;60.18;102929.78;5052333;28;20179;-67
2022/11/11 09:05:50;;;;;;;7.03;4.40;;;;;;;13.17;59.96;102925.84;5053086;28;20506;-67
2022/11/11 09:08:35;;;;;;;5.07;3.83;;;;;;;13.24;59.63;102924.59;5052788;28;20167;-66
2022/11/11 09:11:20;;;;;;;5.07;3.60;;;;;;;13.31;59.87;102923.34;5052714;28;20518;-68
2022/11/11 09:14:05;;;;;;;5.95;3.80;;;;;;;13.38;59.62;102922.13;5046747;28;20071;-68
2022/11/11 09:17:02;;;;;;;6.60;4.38;;;;;;;13.49;59.36;102927.00;4971216;28;20054;-67
2022/11/11 09:19:47;;;;;;;6.10;4.60;;;;;;;13.57;59.35;102930.19;4971466;28;20125;-68
2022/11/11 09:22:32;;;;;;;5.43;3.90;;;;;;;13.60;59.22;102920.09;4969673;28;20074;-68
2022/11/11 09:25:19;;;;;;;6.37;3.77;;;;;;;13.64;59.15;102939.72;4957637;28;20050;-68
2022/11/11 09:28:04;;;;;;;5.82;3.92;;;;;;;13.63;58.94;102936.13;4971389;28;20190;-67
2022/11/11 09:30:49;;;;;;;6.80;3.95;;;;;;;13.67;58.88;102932.34;4971124;28;20065;-68
2022/11/11 09:33:34;;;;;;;5.35;3.70;;;;;;;13.74;59.15;102930.19;4961781;28;20102;-68
2022/11/11 09:36:20;;;;;;;5.93;3.67;;;;;;;13.80;58.76;102923.59;4961637;28;20054;-67
2022/11/11 09:39:05;;;;;;;;;;;;;;;13.86;58.76;102934.97;4971659;28;20151;-67
2022/11/11 09:42:05;;;;;;;6.13;3.85;;;;;;;13.93;58.74;102938.22;4970726;28;19928;-68
2022/11/11 09:45:10;;;;;;;5.57;3.63;;;;;;;13.98;58.47;102941.56;4971344;28;20792;-68
2022/11/11 09:48:32;;;;;;;5.00;3.40;;;;;;;14.03;58.85;102942.19;4970505;28;20136;-68
2022/11/11 09:51:25;;;;;;;5.28;3.70;;;;;;;14.14;58.62;102949.75;4970523;28;20602;-67
2022/11/11 09:54:50;;;;;;;7.68;4.00;;;;;;;14.17;58.71;102949.59;5001831;28;20515;-67
2022/11/11 09:57:38;;;;;;;5.30;3.75;;;;;;;14.26;58.60;102951.81;5032490;28;20099;-68
2022/11/11 10:00:27;;;;;;;5.93;3.80;;;;;;;14.31;58.13;102944.34;5051163;28;20465;-68
2022/11/11 10:03:17;;;;;;;5.22;3.25;;;;;;;14.33;58.30;102950.53;5051631;28;20052;-68
2022/11/11 10:06:14;;;;;;;6.25;3.42;;;;;;;14.36;57.95;102960.31;5055685;28;20086;-68
2022/11/11 10:09:21;;;;;;;8.10;3.60;;;;;;;14.37;58.04;102951.25;5067292;28;20466;-67
2022/11/11 10:12:10;;;;;;;7.45;4.25;;;;;;;14.39;57.88;102960.13;5071328;28;20088;-69
2022/11/11 10:15:00;;;;;;;8.02;3.55;;;;;;;14.41;57.78;102953.69;5071715;28;20047;-70
2022/11/11 10:18:28;;;;;;;6.70;4.10;;;;;;;14.46;58.10;102958.88;5071195;28;20186;-69
2022/11/11 10:21:19;;;;;;;5.43;3.70;;;;;;;14.53;57.96;102955.75;5020855;28;20060;-69
2022/11/11 10:24:12;;;;;;;5.75;3.92;;;;;;;14.58;58.08;102953.69;5051513;28;20155;-68
2022/11/11 10:27:32;;;;;;;5.68;3.70;;;;;;;14.63;58.02;102957.00;5063025;28;20076;-68
2022/11/11 10:30:24;;;;;;;7.07;4.35;;;;;;;14.73;57.66;102953.81;5072559;28;20059;-67
2022/11/11 10:33:43;;;;;;;6.45;4.20;;;;;;;14.85;58.13;102958.53;5070598;28;20051;-69
2022/11/11 10:36:30;;;;;;;5.82;3.97;;;;;;;14.97;57.94;102954.31;5069876;28;20142;-68
2022/11/11 10:39:31;;;;;;;5.63;3.47;;;;;;;15.05;57.69;102949.34;5071137;28;20106;-68
2022/11/11 10:42:17;;;;;;;6.55;4.05;;;;;;;15.10;57.73;102944.53;5070262;28;20067;-68
2022/11/11 10:45:21;;;;;;;5.90;3.30;;;;;;;15.18;57.35;102945.84;5067770;28;20690;-68
2022/11/11 10:48:17;;;;;;;4.50;3.42;;;;;;;15.27;57.58;102948.03;5050944;28;20067;-68
2022/11/11 10:51:02;;;;;;;4.70;3.60;;;;;;;15.36;57.33;102948.44;5051048;28;20063;-68
2022/11/11 10:54:23;;;;;;;4.93;3.33;;;;;;;15.43;57.41;102948.00;5050758;28;20532;-68
2022/11/11 10:57:22;;;;;;;5.18;3.20;;;;;;;15.51;57.53;102945.72;5050928;28;20106;-68
2022/11/11 11:00:14;;;;;;;5.82;3.50;;;;;;;15.61;57.00;102935.28;5050771;28;20525;-68
2022/11/11 11:03:29;;;;;;;5.65;3.85;;;;;;;15.68;57.05;102936.66;5050326;28;20130;-68
2022/11/11 11:06:32;;;;;;;5.55;3.63;;;;;;;15.77;56.79;102932.53;5052003;28;20696;-68
2022/11/11 11:09:28;;;;;;;6.18;3.40;;;;;;;15.86;57.00;102935.56;5050948;28;20127;-68
2022/11/11 11:12:19;;;;;;;4.90;3.40;;;;;;;15.98;56.61;102938.50;5050045;28;20103;-68
2022/11/11 11:15:12;;;;;;;5.82;3.00;;;;;;;16.08;56.29;102929.72;5051766;28;20052;-68
2022/11/11 11:18:05;;;;;;;5.10;2.45;;;;;;;16.15;56.36;102935.63;5035452;28;20056;-68
2022/11/11 11:20:55;;;;;;;5.05;3.05;;;;;;;16.22;56.47;102926.16;5050720;28;20071;-68
2022/11/11 11:23:43;;;;;;;4.47;2.90;;;;;;;16.30;56.11;102931.09;5050578;28;20443;-68
2022/11/11 11:26:45;;;;;;;3.88;2.83;;;;;;;16.35;56.35;102926.25;5051766;28;20052;-68
2022/11/11 11:29:42;;;;;;;3.97;2.63;;;;;;;16.40;56.17;102933.16;5054128;28;20056;-68
2022/11/11 11:32:30;;;;;;;4.03;2.20;;;;;;;16.45;55.97;102928.31;5069488;28;20060;-68
2022/11/11 11:35:42;;;;;;;3.60;2.35;;;;;;;16.52;55.82;102940.53;5061186;28;20056;-68
2022/11/11 11:38:46;;;;;;;5.30;2.70;;;;;;;16.61;55.82;102935.50;5053047;28;20159;-69
2022/11/11 11:41:50;;;;;;;3.85;2.30;;;;;;;16.71;55.76;102939.41;5053946;28;20055;-68
2022/11/11 11:44:38;;;;;;;5.53;2.70;;;;;;;16.78;55.58;102929.91;5061729;28;20531;-68
2022/11/11 11:48:11;;;;;;;7.80;2.65;;;;;;;16.78;55.57;102928.06;5074473;28;20129;-68
2022/11/11 11:51:34;;;;;;;5.13;2.78;;;;;;;16.85;55.19;102925.81;5074091;28;20059;-68
2022/11/11 11:54:35;;;;;;;4.47;2.35;;;;;;;16.94;55.45;102924.34;5072220;28;20533;-69
2022/11/11 11:57:26;;;;;;;3.28;2.22;;;;;;;17.06;55.63;102923.53;5073733;28;20056;-67
2022/11/11 12:00:22;;;;;;;5.18;2.22;;;;;;;17.13;55.38;102923.06;5073967;28;20418;-68
2022/11/11 12:03:41;;;;;;;3.55;2.25;;;;;;;17.17;55.12;102917.44;5073812;28;20052;-68
2022/11/11 12:07:02;;;;;;;4.13;2.00;;;;;;;17.19;54.75;102910.06;5074133;28;20056;-68
2022/11/11 12:09:57;;;;;;;3.85;2.10;;;;;;;17.24;55.11;102913.34;5073861;28;20151;-68
2022/11/11 12:12:56;;;;;;;3.03;2.20;;;;;;;17.28;54.72;102907.59;5073275;28;20064;-68
2022/11/11 12:15:57;;;;;;;2.65;1.92;;;;;;;17.40;54.77;102900.47;5056432;28;20159;-68
2022/11/11 12:19:14;;;;;;;2.20;1.75;;;;;;;17.53;54.53;102893.25;5064620;28;20524;-67
2022/11/11 12:22:13;;;;;;;4.63;1.90;;;;;;;17.65;54.39;102900.56;5073297;28;20082;-68
2022/11/11 12:25:19;;;;;;;4.93;1.98;;;;;;;17.74;54.42;102891.81;5073903;28;20517;-68
2022/11/11 12:28:22;;;;;;;4.10;1.80;;;;;;;17.87;54.47;102896.41;5073150;28;20086;-68
2022/11/11 12:31:14;;;;;;;4.57;1.92;;;;;;;17.96;54.34;102890.34;5072242;28;20052;-68
2022/11/11 12:34:11;;;;;;;5.40;1.98;;;;;;;18.00;53.91;102889.16;5074687;28;20051;-68
2022/11/11 12:37:06;;;;;;;2.45;1.65;;;;;;;18.04;53.81;102890.66;4991223;28;20050;-68
2022/11/11 12:40:05;;;;;;;3.45;1.80;;;;;;;18.06;53.80;102883.28;4972909;28;20058;-67
2022/11/11 12:43:08;;;;;;;2.20;1.60;;;;;;;18.12;53.72;102873.81;4977237;28;20526;-68
2022/11/11 12:46:18;;;;;;;2.72;1.52;;;;;;;18.14;53.26;102882.72;4971697;28;20650;-68
2022/11/11 12:49:15;;;;;;;2.15;1.80;;;;;;;18.15;53.45;102879.91;4970925;28;20105;-68
2022/11/11 12:52:15;;;;;;;2.08;1.70;;;;;;;18.20;53.10;102876.84;4971341;28;20193;-68
2022/11/11 12:55:13;;;;;;;4.20;1.80;;;;;;;18.26;53.28;102877.28;4971676;28;20065;-68
2022/11/11 12:58:05;;;;;;;5.68;1.85;;;;;;;18.34;52.92;102876.75;4971943;28;20549;-69
2022/11/11 13:00:55;;;;;;;2.92;1.88;;;;;;;18.43;52.94;102878.78;4972621;28;20126;-68
2022/11/11 13:03:54;;;;;;;3.40;2.08;;;;;;;18.47;52.62;102874.88;4971707;28;20105;-68
2022/11/11 13:06:55;;;;;;;4.75;2.10;;;;;;;18.53;52.74;102869.00;4971206;28;20858;-69
2022/11/11 13:10:11;;;;;;;4.03;2.00;;;;;;;18.58;52.56;102868.66;4991035;28;20173;-68
2022/11/11 13:13:22;;;;;;;3.88;1.90;;;;;;;18.64;52.38;102860.97;4991011;28;20069;-68
2022/11/11 13:16:09;;;;;;;4.50;1.90;;;;;;;18.68;52.56;102867.06;5031956;28;20151;-68
2022/11/11 13:19:16;;;;;;;5.57;1.95;;;;;;;18.72;52.59;102864.00;5044679;28;20069;-68
2022/11/11 13:22:21;;;;;;;4.78;1.65;;;;;;;18.80;52.29;102870.72;5052550;28;20529;-69
2022/11/11 13:25:15;;;;;;;3.42;1.85;;;;;;;18.79;52.22;102867.13;5052834;28;20048;-68
2022/11/11 13:28:27;;;;;;;5.72;1.85;;;;;;;18.82;51.95;102863.31;5046084;28;20053;-69
2022/11/11 13:31:35;;;;;;;4.47;1.98;;;;;;;18.85;52.20;102854.94;5038764;28;20067;-69
2022/11/11 13:34:46;;;;;;;4.75;1.90;;;;;;;18.82;51.97;102860.59;5033877;28;20053;-68
2022/11/11 13:37:33;;;;;;;4.22;1.75;;;;;;;18.80;52.10;102866.16;5032095;28;20200;-68
2022/11/11 13:40:42;;;;;;;2.40;1.65;;;;;;;18.77;51.80;102863.66;5032285;28;20056;-68
2022/11/11 13:43:56;;;;;;;2.03;1.60;;;;;;;18.73;52.07;102862.16;5032930;28;20566;-68
2022/11/11 13:46:46;;;;;;;4.85;1.77;;;;;;;18.73;51.59;102862.16;5031934;28;20092;-69
2022/11/11 13:49:45;;;;;;;3.20;1.45;;;;;;;18.67;51.97;102865.31;5030378;28;20072;-68
2022/11/11 13:52:36;;;;;;;3.55;1.70;;;;;;;18.64;51.74;102868.28;5029915;28;20052;-68
2022/11/11 13:55:32;;;;;;;4.30;2.00;;;;;;;18.60;51.79;102872.16;5035332;28;20055;-69
2022/11/11 13:58:26;;;;;;;;;;;;;;;18.57;52.01;102878.66;5031780;28;20419;-70
2022/11/11 14:01:12;;;;;;;7.57;2.05;;;;;;;18.59;51.96;102873.16;5031062;28;19928;-71
2022/11/11 14:04:01;;;;;;;3.38;1.80;;;;;;;18.54;51.71;102869.84;5031747;28;20041;-72
2022/11/11 14:06:46;;;;;;;3.13;1.67;;;;;;;18.48;52.00;102864.84;5049342;28;20151;-69
2022/11/11 14:09:53;;;;;;;3.63;1.77;;;;;;;18.44;52.15;102864.22;5051481;28;20569;-69
2022/11/11 14:12:41;;;;;;;5.22;2.25;;;;;;;18.46;52.01;102874.97;5051238;28;20688;-69
2022/11/11 14:15:49;;;;;;;3.45;1.85;;;;;;;18.41;52.08;102865.31;5049765;28;20513;-70
2022/11/11 14:18:39;;;;;;;2.90;1.83;;;;;;;18.36;51.71;102869.34;5051420;28;20048;-72
2022/11/11 14:22:21;;;;;;;5.35;1.95;;;;;;;18.28;51.77;102875.34;5050507;28;20055;-70
2022/11/11 14:25:27;;;;;;;6.15;1.90;;;;;;;18.24;51.80;102873.81;4967068;28;20053;-70
2022/11/11 14:28:35;;;;;;;3.03;1.90;;;;;;;18.20;52.06;102866.84;4950447;29;20129;-70
2022/11/11 14:31:20;;;;;;;3.65;1.98;;;;;;;18.17;51.80;102868.91;5030198;28;20353;-70